createdAt,value
2022-11-19T00:00:01.099Z,6.76
2022-11-19T00:01:01.026Z,6.66
2022-11-19T00:02:06.448Z,6.57
2022-11-19T00:03:01.394Z,6.55
2022-11-19T00:04:01.216Z,6.51
2022-11-19T00:05:01.096Z,6.5
2022-11-19T00:06:01.035Z,6.43
2022-11-19T00:07:01.230Z,6.41
2022-11-19T00:08:01.388Z,6.4
2022-11-19T00:09:01.033Z,6.38
2022-11-19T00:10:01.057Z,6.35
2022-11-19T00:11:03.226Z,6.34
2022-11-19T00:12:01.206Z,6.28
2022-11-19T00:13:04.440Z,6.22
2022-11-19T00:14:01.394Z,6.12
2022-11-19T00:15:01.253Z,5.99
2022-11-19T00:16:01.036Z,6
2022-11-19T00:17:01.173Z,6.07
2022-11-19T00:18:01.540Z,6.13
2022-11-19T00:19:01.248Z,6.04
2022-11-19T00:20:01.113Z,5.91
2022-11-19T00:21:01.240Z,5.85
2022-11-19T00:22:01.187Z,5.83
2022-11-19T00:23:01.391Z,5.78
2022-11-19T00:24:01.025Z,5.8
2022-11-19T00:25:01.116Z,5.76
2022-11-19T00:26:01.147Z,5.8
2022-11-19T00:27:01.190Z,5.86
2022-11-19T00:28:01.444Z,5.93
2022-11-19T00:29:01.419Z,5.96
2022-11-19T00:30:01.084Z,5.97
2022-11-19T00:31:01.142Z,5.97
2022-11-19T00:32:01.030Z,6.07
2022-11-19T00:33:01.518Z,6.08
2022-11-19T00:34:04.035Z,6.07
2022-11-19T00:35:01.229Z,6.05
2022-11-19T00:36:01.179Z,5.93
2022-11-19T00:37:01.204Z,5.94
2022-11-19T00:38:01.467Z,6.01
2022-11-19T00:39:01.238Z,6.03
2022-11-19T00:40:01.128Z,6.06
2022-11-19T00:41:01.137Z,5.93
2022-11-19T00:42:01.097Z,5.84
2022-11-19T00:43:01.514Z,5.74
2022-11-19T00:44:01.395Z,5.8
2022-11-19T00:45:04.482Z,5.74
2022-11-19T00:46:01.106Z,5.62
2022-11-19T00:47:01.095Z,5.61
2022-11-19T00:48:01.509Z,5.54
2022-11-19T00:49:01.119Z,5.54
2022-11-19T00:50:01.022Z,5.58
2022-11-19T00:51:04.102Z,5.67
2022-11-19T00:52:01.225Z,5.75
2022-11-19T00:53:02.488Z,5.76
2022-11-19T00:54:01.048Z,5.75
2022-11-19T00:55:01.108Z,5.76
2022-11-19T00:56:01.212Z,5.73
2022-11-19T00:57:01.142Z,5.7
2022-11-19T00:58:04.195Z,5.69
2022-11-19T00:59:01.440Z,5.63
2022-11-19T01:00:01.228Z,5.6
2022-11-19T01:01:01.179Z,5.6
2022-11-19T01:02:04.215Z,5.59
2022-11-19T01:03:01.393Z,5.6
2022-11-19T01:04:01.222Z,5.53
2022-11-19T01:05:01.187Z,5.51
2022-11-19T01:06:02.752Z,5.48
2022-11-19T01:07:01.240Z,5.48
2022-11-19T01:08:01.398Z,5.51
2022-11-19T01:09:01.163Z,5.42
2022-11-19T01:10:01.187Z,5.37
2022-11-19T01:11:01.082Z,5.46
2022-11-19T01:12:01.114Z,5.48
2022-11-19T01:13:07.180Z,5.47
2022-11-19T01:14:01.405Z,5.48
2022-11-19T01:15:01.009Z,5.54
2022-11-19T01:16:01.050Z,5.62
2022-11-19T01:17:01.253Z,5.66
2022-11-19T01:18:01.518Z,5.6
2022-11-19T01:19:01.255Z,5.5
2022-11-19T01:20:01.266Z,5.55
2022-11-19T01:21:01.179Z,5.51
2022-11-19T01:22:01.248Z,5.51
2022-11-19T01:23:01.396Z,5.47
2022-11-19T01:24:01.179Z,5.46
2022-11-19T01:25:01.020Z,5.42
2022-11-19T01:26:01.168Z,5.39
2022-11-19T01:27:01.122Z,5.44
2022-11-19T01:28:01.552Z,5.42
2022-11-19T01:29:04.499Z,5.4
2022-11-19T01:30:01.094Z,5.4
2022-11-19T01:31:01.151Z,5.39
2022-11-19T01:32:01.181Z,5.35
2022-11-19T01:33:01.485Z,5.35
2022-11-19T01:34:01.144Z,5.28
2022-11-19T01:35:01.107Z,5.23
2022-11-19T01:36:01.047Z,5.21
2022-11-19T01:37:01.179Z,5.2
2022-11-19T01:38:01.399Z,5.26
2022-11-19T01:39:01.285Z,5.29
2022-11-19T01:40:04.058Z,5.3
2022-11-19T01:41:01.125Z,5.25
2022-11-19T01:42:01.018Z,5.06
2022-11-19T01:43:01.463Z,5.01
2022-11-19T01:44:01.567Z,4.96
2022-11-19T01:45:01.116Z,4.94
2022-11-19T01:46:01.150Z,4.81
2022-11-19T01:47:01.164Z,4.8
2022-11-19T01:48:01.391Z,4.81
2022-11-19T01:49:01.208Z,4.81
2022-11-19T01:50:01.198Z,4.85
2022-11-19T01:51:04.159Z,4.78
2022-11-19T01:52:01.043Z,4.74
2022-11-19T01:53:01.467Z,4.69
2022-11-19T01:54:01.215Z,4.69
2022-11-19T01:55:01.119Z,4.63
2022-11-19T01:56:01.244Z,4.64
2022-11-19T01:57:01.167Z,4.59
2022-11-19T01:58:01.552Z,4.58
2022-11-19T01:59:01.391Z,4.56
2022-11-19T02:00:01.081Z,4.41
2022-11-19T02:01:01.056Z,4.24
2022-11-19T02:02:01.170Z,4.21
2022-11-19T02:03:01.398Z,4.17
2022-11-19T02:04:01.248Z,4.25
2022-11-19T02:05:01.183Z,4.22
2022-11-19T02:06:01.171Z,4.33
2022-11-19T02:07:04.196Z,4.27
2022-11-19T02:08:01.467Z,4.19
2022-11-19T02:09:01.264Z,4.2
2022-11-19T02:10:01.258Z,4.31
2022-11-19T02:11:01.224Z,4.35
2022-11-19T02:12:01.147Z,4.35
2022-11-19T02:13:01.399Z,4.44
2022-11-19T02:14:01.487Z,4.42
2022-11-19T02:15:01.216Z,4.34
2022-11-19T02:16:01.051Z,4.26
2022-11-19T02:17:01.196Z,4.2
2022-11-19T02:18:07.088Z,4.15
2022-11-19T02:19:01.122Z,4.14
2022-11-19T02:20:01.115Z,4.09
2022-11-19T02:21:01.233Z,4.06
2022-11-19T02:22:01.250Z,4.05
2022-11-19T02:23:01.398Z,4.14
2022-11-19T02:24:01.196Z,4.13
2022-11-19T02:25:01.163Z,4.1
2022-11-19T02:26:01.104Z,4.09
2022-11-19T02:27:01.154Z,4.07
2022-11-19T02:28:01.513Z,4.05
2022-11-19T02:29:04.431Z,4.12
2022-11-19T02:30:01.077Z,4.14
2022-11-19T02:31:01.162Z,4.12
2022-11-19T02:32:01.088Z,4.08
2022-11-19T02:33:01.510Z,4.06
2022-11-19T02:34:01.123Z,4.03
2022-11-19T02:35:04.127Z,4.1
2022-11-19T02:36:01.226Z,4.03
2022-11-19T02:37:01.157Z,4.11
2022-11-19T02:38:01.523Z,4.06
2022-11-19T02:39:01.272Z,4.03
2022-11-19T02:40:01.187Z,4.13
2022-11-19T02:41:01.156Z,4.13
2022-11-19T02:42:01.104Z,4.06
2022-11-19T02:43:01.390Z,4.06
2022-11-19T02:44:01.392Z,4.08
2022-11-19T02:45:01.085Z,4.11
2022-11-19T02:46:01.149Z,4.1
2022-11-19T02:47:01.184Z,4.13
2022-11-19T02:48:01.472Z,4.17
2022-11-19T02:49:01.243Z,4.16
2022-11-19T02:50:01.183Z,4.14
2022-11-19T02:51:04.188Z,4.06
2022-11-19T02:52:01.218Z,4.05
2022-11-19T02:53:01.471Z,4.06
2022-11-19T02:54:01.157Z,4.14
2022-11-19T02:55:01.183Z,4.19
2022-11-19T02:56:01.212Z,4.2
2022-11-19T02:57:01.177Z,4.17
2022-11-19T02:58:01.465Z,4.1
2022-11-19T02:59:01.508Z,4.15
2022-11-19T03:00:01.085Z,4.25
2022-11-19T03:01:01.109Z,4.2
2022-11-19T03:02:04.192Z,4.05
2022-11-19T03:03:01.399Z,4.04
2022-11-19T03:04:01.268Z,4.11
2022-11-19T03:05:01.181Z,4.17
2022-11-19T03:06:01.046Z,4.23
2022-11-19T03:07:01.226Z,4.26
2022-11-19T03:08:01.391Z,4.19
2022-11-19T03:09:01.134Z,4.1
2022-11-19T03:10:01.200Z,4.07
2022-11-19T03:11:01.120Z,4.01
2022-11-19T03:12:01.100Z,4.02
2022-11-19T03:13:04.471Z,4
2022-11-19T03:14:01.393Z,3.99
2022-11-19T03:15:01.209Z,3.98
2022-11-19T03:16:01.134Z,4.01
2022-11-19T03:17:01.158Z,3.98
2022-11-19T03:18:01.497Z,3.93
2022-11-19T03:19:01.178Z,3.94
2022-11-19T03:20:01.097Z,3.9
2022-11-19T03:21:01.120Z,3.9
2022-11-19T03:22:01.034Z,3.88
2022-11-19T03:23:01.527Z,3.94
2022-11-19T03:24:04.200Z,3.93
2022-11-19T03:25:01.192Z,3.97
2022-11-19T03:26:01.163Z,3.99
2022-11-19T03:27:01.240Z,3.98
2022-11-19T03:28:01.404Z,3.97
2022-11-19T03:29:01.390Z,3.98
2022-11-19T03:30:01.049Z,4
2022-11-19T03:31:01.183Z,3.98
2022-11-19T03:32:01.246Z,3.98
2022-11-19T03:33:01.600Z,3.99
2022-11-19T03:34:01.228Z,4.01
2022-11-19T03:35:01.111Z,3.96
2022-11-19T03:36:01.131Z,3.93
2022-11-19T03:37:01.128Z,3.95
2022-11-19T03:38:01.467Z,3.94
2022-11-19T03:39:01.212Z,3.99
2022-11-19T03:40:04.101Z,4.07
2022-11-19T03:41:01.213Z,4.04
2022-11-19T03:42:01.206Z,4.06
2022-11-19T03:43:01.467Z,4.02
2022-11-19T03:44:01.436Z,3.99
2022-11-19T03:45:01.120Z,4
2022-11-19T03:46:01.163Z,4.05
2022-11-19T03:47:01.133Z,4.16
2022-11-19T03:48:01.396Z,4.13
2022-11-19T03:49:01.213Z,4.05
2022-11-19T03:50:01.133Z,4
2022-11-19T03:51:04.152Z,4
2022-11-19T03:52:01.241Z,4
2022-11-19T03:53:04.581Z,4.01
2022-11-19T03:54:01.245Z,4
2022-11-19T03:55:01.159Z,3.98
2022-11-19T03:56:01.033Z,3.96
2022-11-19T03:57:04.181Z,3.97
2022-11-19T03:58:01.513Z,3.96
2022-11-19T03:59:01.401Z,3.99
2022-11-19T04:00:01.127Z,4.01
2022-11-19T04:01:01.211Z,4.08
2022-11-19T04:02:01.236Z,4.17
2022-11-19T04:03:01.481Z,4.13
2022-11-19T04:04:01.121Z,4.17
2022-11-19T04:05:01.145Z,4.19
2022-11-19T04:06:01.182Z,4.3
2022-11-19T04:07:01.247Z,4.41
2022-11-19T04:08:07.119Z,4.45
2022-11-19T04:09:01.115Z,4.47
2022-11-19T04:10:01.090Z,4.52
2022-11-19T04:12:08.054Z,4.5
2022-11-19T04:13:08.459Z,4.58
2022-11-19T04:14:08.380Z,4.66
2022-11-19T04:15:08.084Z,4.73
2022-11-19T04:16:08.180Z,4.75
2022-11-19T04:17:11.176Z,4.62
2022-11-19T04:18:08.381Z,4.52
2022-11-19T04:19:08.011Z,4.53
2022-11-19T04:20:08.022Z,4.51
2022-11-19T04:21:08.066Z,4.4
2022-11-19T04:22:08.137Z,4.3
2022-11-19T04:23:08.123Z,4.3
2022-11-19T04:24:08.033Z,4.28
2022-11-19T04:25:08.171Z,4.31
2022-11-19T04:26:08.083Z,4.19
2022-11-19T04:27:08.031Z,4.19
2022-11-19T04:28:14.125Z,4.22
2022-11-19T04:29:08.382Z,4.21
2022-11-19T04:30:08.074Z,4.24
2022-11-19T04:31:08.131Z,4.39
2022-11-19T04:32:08.184Z,4.54
2022-11-19T04:33:08.528Z,4.53
2022-11-19T04:34:08.140Z,4.59
2022-11-19T04:35:08.135Z,4.6
2022-11-19T04:36:08.174Z,4.51
2022-11-19T04:37:08.176Z,4.49
2022-11-19T04:38:08.377Z,4.5
2022-11-19T04:39:11.072Z,4.5
2022-11-19T04:40:08.211Z,4.51
2022-11-19T04:41:08.121Z,4.47
2022-11-19T04:42:08.101Z,4.38
2022-11-19T04:43:08.515Z,4.3
2022-11-19T04:44:08.377Z,4.3
2022-11-19T04:45:11.481Z,4.33
2022-11-19T04:46:08.233Z,4.26
2022-11-19T04:47:08.126Z,4.18
2022-11-19T04:48:08.378Z,4.13
2022-11-19T04:49:08.237Z,4.19
2022-11-19T04:50:08.171Z,4.19
2022-11-19T04:51:08.131Z,4.21
2022-11-19T04:52:08.027Z,4.13
2022-11-19T04:53:08.497Z,4.1
2022-11-19T04:54:08.210Z,4.12
2022-11-19T04:55:08.165Z,4.18
2022-11-19T04:56:11.144Z,4.15
2022-11-19T04:57:08.211Z,4.17
2022-11-19T04:58:08.382Z,4.25
2022-11-19T04:59:08.374Z,4.24
2022-11-19T05:00:08.112Z,4.28
2022-11-19T05:01:08.163Z,4.3
2022-11-19T05:02:11.178Z,4.23
2022-11-19T05:03:08.384Z,4.09
2022-11-19T05:04:08.106Z,4.03
2022-11-19T05:05:08.167Z,4.01
2022-11-19T05:06:08.209Z,4
2022-11-19T05:07:08.247Z,3.98
2022-11-19T05:08:09.104Z,4.05
2022-11-19T05:09:08.173Z,4.05
2022-11-19T05:10:08.129Z,4.05
2022-11-19T05:11:08.158Z,3.99
2022-11-19T05:12:08.181Z,3.97
2022-11-19T05:13:11.156Z,4.05
2022-11-19T05:14:08.374Z,4.11
2022-11-19T05:15:08.065Z,4.2
2022-11-19T05:16:08.156Z,4.23
2022-11-19T05:17:08.245Z,4.22
2022-11-19T05:18:08.198Z,4.16
2022-11-19T05:19:08.377Z,4.02
2022-11-19T05:20:08.042Z,3.95
2022-11-19T05:21:08.162Z,3.95
2022-11-19T05:22:08.141Z,3.98
2022-11-19T05:23:08.142Z,3.99
2022-11-19T05:24:15.310Z,3.95
2022-11-19T05:25:08.223Z,3.97
2022-11-19T05:26:08.096Z,3.98
2022-11-19T05:27:08.046Z,3.92
2022-11-19T05:28:08.179Z,3.81
2022-11-19T05:29:08.451Z,3.75
2022-11-19T05:30:08.394Z,3.75
2022-11-19T05:31:08.130Z,3.76
2022-11-19T05:32:08.208Z,3.76
2022-11-19T05:33:08.047Z,3.71
2022-11-19T05:34:08.198Z,3.63
2022-11-19T05:35:14.103Z,3.58
2022-11-19T05:36:08.221Z,3.54
2022-11-19T05:37:08.182Z,3.62
2022-11-19T05:38:08.112Z,3.63
2022-11-19T05:39:08.102Z,3.59
2022-11-19T05:40:08.457Z,3.57
2022-11-19T05:41:08.148Z,3.6
2022-11-19T05:42:08.133Z,3.66
2022-11-19T05:43:08.102Z,3.6
2022-11-19T05:44:08.452Z,3.54
2022-11-19T05:45:08.091Z,3.55
2022-11-19T05:46:14.066Z,3.6
2022-11-19T05:47:08.113Z,3.57
2022-11-19T05:48:08.118Z,3.52
2022-11-19T05:49:08.134Z,3.48
2022-11-19T05:50:08.247Z,3.44
2022-11-19T05:51:08.381Z,3.41
2022-11-19T05:52:08.030Z,3.4
2022-11-19T05:53:08.026Z,3.35
2022-11-19T05:54:08.219Z,3.36
2022-11-19T05:55:08.195Z,3.33
2022-11-19T05:56:08.449Z,3.33
2022-11-19T05:57:11.113Z,3.32
2022-11-19T05:58:08.210Z,3.33
2022-11-19T05:59:08.464Z,3.34
2022-11-19T06:00:08.064Z,3.35
2022-11-19T06:01:08.141Z,3.32
2022-11-19T06:02:08.449Z,3.32
2022-11-19T06:03:08.201Z,3.29
2022-11-19T06:04:10.342Z,3.2
2022-11-19T06:05:08.253Z,3.16
2022-11-19T06:06:08.181Z,3.18
2022-11-19T06:07:08.501Z,3.24
2022-11-19T06:08:08.164Z,3.2
2022-11-19T06:09:08.153Z,3.19
2022-11-19T06:10:08.156Z,3.17
2022-11-19T06:11:08.028Z,3.17
2022-11-19T06:12:09.512Z,3.17
2022-11-19T06:13:11.097Z,3.18
2022-11-19T06:14:08.236Z,3.26
2022-11-19T06:15:08.460Z,3.35
2022-11-19T06:16:08.208Z,3.34
2022-11-19T06:17:08.164Z,3.31
2022-11-19T06:18:08.227Z,3.26
2022-11-19T06:19:08.132Z,3.25
2022-11-19T06:20:08.008Z,3.31
2022-11-19T06:21:12.008Z,3.38
2022-11-19T06:22:08.030Z,3.38
2022-11-19T06:23:08.523Z,3.32
2022-11-19T06:24:11.046Z,3.24
2022-11-19T06:25:08.226Z,3.21
2022-11-19T06:26:08.151Z,3.2
2022-11-19T06:27:08.155Z,3.3
2022-11-19T06:28:09.641Z,3.34
2022-11-19T06:29:08.205Z,3.4
2022-11-19T06:30:08.460Z,3.45
2022-11-19T06:31:08.080Z,3.41
2022-11-19T06:32:08.128Z,3.36
2022-11-19T06:33:08.225Z,3.27
2022-11-19T06:34:08.446Z,3.23
2022-11-19T06:35:13.132Z,3.25
2022-11-19T06:36:08.224Z,3.15
2022-11-19T06:37:08.100Z,3.08
2022-11-19T06:38:08.206Z,2.98
2022-11-19T06:39:08.445Z,2.96
2022-11-19T06:40:08.098Z,3
2022-11-19T06:41:08.025Z,3
2022-11-19T06:42:08.150Z,3
2022-11-19T06:43:08.193Z,2.96
2022-11-19T06:44:08.453Z,2.92
2022-11-19T06:45:08.377Z,2.94
2022-11-19T06:46:11.161Z,2.94
2022-11-19T06:47:08.200Z,2.94
2022-11-19T06:48:08.164Z,2.88
2022-11-19T06:49:08.383Z,2.83
2022-11-19T06:50:08.204Z,2.87
2022-11-19T06:51:08.164Z,2.92
2022-11-19T06:52:08.050Z,2.96
2022-11-19T06:53:08.032Z,2.95
2022-11-19T06:54:08.452Z,2.98
2022-11-19T06:55:08.191Z,3.03
2022-11-19T06:56:08.020Z,2.99
2022-11-19T06:57:11.011Z,2.95
2022-11-19T06:58:08.206Z,3.01
2022-11-19T06:59:08.390Z,3.05
2022-11-19T07:00:08.386Z,3.09
2022-11-19T07:01:08.140Z,3.18
2022-11-19T07:02:08.243Z,3.11
2022-11-19T07:03:08.163Z,3.04
2022-11-19T07:04:08.450Z,3
2022-11-19T07:05:08.238Z,3.06
2022-11-19T07:06:08.128Z,3.08
2022-11-19T07:07:08.040Z,3.11
2022-11-19T07:08:11.142Z,3.13
2022-11-19T07:09:08.380Z,3.15
2022-11-19T07:10:08.182Z,3.04
2022-11-19T07:11:08.181Z,2.96
2022-11-19T07:12:08.023Z,2.97
2022-11-19T07:13:08.063Z,2.99
2022-11-19T07:14:08.421Z,2.86
2022-11-19T07:15:08.450Z,2.85
2022-11-19T07:16:08.185Z,2.86
2022-11-19T07:17:08.125Z,2.87
2022-11-19T07:18:08.178Z,2.82
2022-11-19T07:19:11.320Z,2.73
2022-11-19T07:20:08.156Z,2.69
2022-11-19T07:21:08.179Z,2.67
2022-11-19T07:22:08.085Z,2.63
2022-11-19T07:23:08.163Z,2.54
2022-11-19T07:24:08.235Z,2.57
2022-11-19T07:25:14.071Z,2.58
2022-11-19T07:26:08.153Z,2.56
2022-11-19T07:27:08.136Z,2.61
2022-11-19T07:28:08.222Z,2.69
2022-11-19T07:29:08.029Z,2.66
2022-11-19T07:30:08.465Z,2.74
2022-11-19T07:31:11.124Z,2.75
2022-11-19T07:32:08.146Z,2.75
2022-11-19T07:33:08.053Z,2.8
2022-11-19T07:34:08.123Z,2.83
2022-11-19T07:35:08.456Z,2.85
2022-11-19T07:36:08.241Z,2.79
2022-11-19T07:37:08.146Z,2.78
2022-11-19T07:38:08.177Z,2.79
2022-11-19T07:39:08.035Z,2.81
2022-11-19T07:40:08.169Z,2.91
2022-11-19T07:41:08.384Z,2.97
2022-11-19T07:42:11.167Z,2.97
2022-11-19T07:43:08.091Z,2.97
2022-11-19T07:44:08.029Z,3.09
2022-11-19T07:45:08.501Z,3.14
2022-11-19T07:46:08.119Z,3.14
2022-11-19T07:47:08.446Z,3.11
2022-11-19T07:48:11.044Z,3.02
2022-11-19T07:49:08.227Z,3.03
2022-11-19T07:50:08.048Z,3.04
2022-11-19T07:51:08.021Z,2.99
2022-11-19T07:52:08.454Z,3.04
2022-11-19T07:53:08.164Z,3.07
2022-11-19T07:54:08.126Z,3.06
2022-11-19T07:55:08.133Z,3.1
2022-11-19T07:56:08.254Z,3.11
2022-11-19T07:57:08.384Z,3.12
2022-11-19T07:58:08.105Z,3.21
2022-11-19T07:59:11.117Z,3.24
2022-11-19T08:00:08.455Z,3.25
2022-11-19T08:01:08.117Z,3.25
2022-11-19T08:02:08.517Z,3.25
2022-11-19T08:03:08.130Z,3.29
2022-11-19T08:04:08.002Z,3.39
2022-11-19T08:05:08.195Z,3.37
2022-11-19T08:06:08.146Z,3.38
2022-11-19T08:07:08.478Z,3.32
2022-11-19T08:08:08.234Z,3.33
2022-11-19T08:09:08.104Z,3.28
2022-11-19T08:10:08.108Z,3.24
2022-11-19T08:11:08.141Z,3.29
2022-11-19T08:12:08.507Z,3.33
2022-11-19T08:13:08.239Z,3.32
2022-11-19T08:14:08.207Z,3.17
2022-11-19T08:15:14.131Z,3.09
2022-11-19T08:16:07.999Z,3.1
2022-11-19T08:17:08.498Z,3.07
2022-11-19T08:18:08.227Z,3.03
2022-11-19T08:19:08.199Z,3.01
2022-11-19T08:20:08.030Z,2.98
2022-11-19T08:21:08.157Z,2.96
2022-11-19T08:22:08.451Z,2.99
2022-11-19T08:23:08.184Z,3.05
2022-11-19T08:24:08.155Z,3.13
2022-11-19T08:25:08.128Z,3.16
2022-11-19T08:26:11.139Z,3.08
2022-11-19T08:27:08.381Z,3.05
2022-11-19T08:28:08.069Z,3.01
2022-11-19T08:29:11.730Z,2.91
2022-11-19T08:30:08.491Z,2.86
2022-11-19T08:31:08.215Z,2.8
2022-11-19T08:32:08.374Z,2.81
2022-11-19T08:33:08.099Z,2.85
2022-11-19T08:34:08.111Z,2.83
2022-11-19T08:35:08.130Z,2.79
2022-11-19T08:36:08.118Z,2.76
2022-11-19T08:37:14.082Z,2.72
2022-11-19T08:38:08.137Z,2.76
2022-11-19T08:39:08.126Z,2.68
2022-11-19T08:40:08.212Z,2.66
2022-11-19T08:41:08.219Z,2.7
2022-11-19T08:42:08.444Z,2.73
2022-11-19T08:43:08.135Z,2.78
2022-11-19T08:44:08.104Z,2.76
2022-11-19T08:45:08.450Z,2.69
2022-11-19T08:46:08.011Z,2.65
2022-11-19T08:47:08.450Z,2.66
2022-11-19T08:48:11.006Z,2.65
2022-11-19T08:49:08.208Z,2.62
2022-11-19T08:50:08.085Z,2.62
2022-11-19T08:51:08.158Z,2.67
2022-11-19T08:52:08.383Z,2.83
2022-11-19T08:53:08.225Z,2.88
2022-11-19T08:54:08.155Z,2.89
2022-11-19T08:55:08.138Z,2.92
2022-11-19T08:56:08.222Z,2.93
2022-11-19T08:57:08.405Z,2.85
2022-11-19T08:58:08.232Z,2.74
2022-11-19T08:59:11.153Z,2.74
2022-11-19T09:00:08.395Z,2.79
2022-11-19T09:01:09.889Z,2.89
2022-11-19T09:02:08.207Z,2.99
2022-11-19T09:03:08.518Z,3.03
2022-11-19T09:04:08.548Z,3.11
2022-11-19T09:05:13.256Z,3.13
2022-11-19T09:06:08.050Z,3.22
2022-11-19T09:07:08.218Z,3.32
2022-11-19T09:08:08.445Z,3.47
2022-11-19T09:09:08.026Z,3.52
2022-11-19T09:10:11.145Z,3.34
2022-11-19T09:11:08.115Z,3.24
2022-11-19T09:12:08.112Z,3.26
2022-11-19T09:13:08.039Z,3.31
2022-11-19T09:14:08.451Z,3.27
2022-11-19T09:15:08.079Z,3.19
2022-11-19T09:16:08.430Z,3.01
2022-11-19T09:17:08.026Z,2.93
2022-11-19T09:18:08.217Z,2.89
2022-11-19T09:19:08.025Z,2.88
2022-11-19T09:20:08.155Z,2.87
2022-11-19T09:21:11.165Z,2.86
2022-11-19T09:22:08.143Z,2.88
2022-11-19T09:23:08.237Z,2.85
2022-11-19T09:24:08.209Z,2.87
2022-11-19T09:25:08.014Z,3.05
2022-11-19T09:26:08.147Z,3.1
2022-11-19T09:27:08.137Z,3.11
2022-11-19T09:28:08.109Z,3.1
2022-11-19T09:29:08.449Z,3.11
2022-11-19T09:30:08.107Z,3.12
2022-11-19T09:31:08.450Z,3.14
2022-11-19T09:32:10.993Z,3.23
2022-11-19T09:33:08.133Z,3.32
2022-11-19T09:34:08.375Z,3.32
2022-11-19T09:35:08.166Z,3.27
2022-11-19T09:36:08.121Z,3.28
2022-11-19T09:37:08.123Z,3.32
2022-11-19T09:38:08.131Z,3.34
2022-11-19T09:39:08.539Z,3.28
2022-11-19T09:40:08.201Z,3.24
2022-11-19T09:41:08.010Z,3.38
2022-11-19T09:42:08.210Z,3.3
2022-11-19T09:43:15.276Z,3.15
2022-11-19T09:44:08.388Z,3.16
2022-11-19T09:45:07.999Z,3.26
2022-11-19T09:46:08.456Z,3.3
2022-11-19T09:47:08.244Z,3.33
2022-11-19T09:48:08.187Z,3.43
2022-11-19T09:49:08.379Z,3.37
2022-11-19T09:50:08.030Z,3.31
2022-11-19T09:51:08.243Z,3.22
2022-11-19T09:52:08.159Z,3.19
2022-11-19T09:53:08.177Z,3.27
2022-11-19T09:54:11.135Z,3.36
2022-11-19T09:55:08.426Z,3.31
2022-11-19T09:56:08.123Z,3.27
2022-11-19T09:57:08.155Z,3.11
2022-11-19T09:58:08.314Z,3.1
2022-11-19T09:59:08.245Z,3.06
2022-11-19T10:00:08.097Z,3
2022-11-19T10:01:08.129Z,3
2022-11-19T10:02:08.402Z,3.03
2022-11-19T10:03:08.256Z,3.22
2022-11-19T10:04:08.039Z,3.26
2022-11-19T10:05:11.098Z,3.41
2022-11-19T10:06:08.202Z,3.43
2022-11-19T10:07:08.213Z,3.45
2022-11-19T10:08:08.265Z,3.39
2022-11-19T10:09:08.191Z,3.29
2022-11-19T10:10:12.351Z,3.17
2022-11-19T10:11:08.132Z,3.14
2022-11-19T10:12:08.004Z,3.21
2022-11-19T10:13:08.016Z,3.25
2022-11-19T10:14:08.095Z,3.26
2022-11-19T10:15:08.079Z,3.31
2022-11-19T10:16:14.086Z,3.48
2022-11-19T10:17:08.382Z,3.54
2022-11-19T10:18:08.115Z,3.51
2022-11-19T10:19:08.249Z,3.4
2022-11-19T10:20:08.127Z,3.31
2022-11-19T10:21:08.545Z,3.27
2022-11-19T10:22:08.076Z,3.24
2022-11-19T10:23:08.155Z,3.43
2022-11-19T10:24:08.161Z,3.59
2022-11-19T10:25:08.125Z,3.47
2022-11-19T10:26:08.227Z,3.4
2022-11-19T10:27:11.144Z,3.34
2022-11-19T10:28:08.106Z,3.29
2022-11-19T10:29:08.022Z,3.22
2022-11-19T10:30:08.003Z,3.24
2022-11-19T10:31:08.573Z,3.18
2022-11-19T10:32:08.184Z,3.07
2022-11-19T10:33:08.165Z,3.04
2022-11-19T10:34:08.015Z,3.08
2022-11-19T10:35:08.135Z,3.17
2022-11-19T10:36:08.479Z,3.08
2022-11-19T10:37:08.226Z,3.03
2022-11-19T10:38:11.142Z,3.05
2022-11-19T10:39:08.216Z,3.02
2022-11-19T10:40:08.206Z,2.97
2022-11-19T10:41:08.156Z,3.01
2022-11-19T10:42:08.087Z,3.01
2022-11-19T10:43:08.242Z,3.01
2022-11-19T10:44:08.025Z,3.1
2022-11-19T10:45:07.992Z,3.22
2022-11-19T10:46:08.234Z,3.31
2022-11-19T10:47:08.235Z,3.45
2022-11-19T10:48:09.567Z,3.52
2022-11-19T10:49:11.121Z,3.51
2022-11-19T10:50:11.294Z,3.43
2022-11-19T10:51:08.132Z,3.44
2022-11-19T10:52:08.058Z,3.44
2022-11-19T10:53:08.043Z,3.38
2022-11-19T10:54:08.133Z,3.41
2022-11-19T10:55:08.191Z,3.42
2022-11-19T10:56:08.451Z,3.39
2022-11-19T10:57:08.185Z,3.43
2022-11-19T10:58:08.539Z,3.45
2022-11-19T10:59:08.095Z,3.4
2022-11-19T11:00:08.020Z,3.43
2022-11-19T11:01:08.511Z,3.55
2022-11-19T11:02:08.216Z,3.66
2022-11-19T11:03:08.382Z,3.7
2022-11-19T11:04:08.236Z,3.73
2022-11-19T11:05:11.045Z,3.66
2022-11-19T11:06:08.224Z,3.69
2022-11-19T11:07:08.291Z,3.73
2022-11-19T11:08:08.521Z,3.99
2022-11-19T11:09:08.024Z,4.06
2022-11-19T11:10:08.088Z,4.21
2022-11-19T11:11:08.378Z,4.26
2022-11-19T11:12:08.100Z,4.34
2022-11-19T11:13:08.174Z,4.3
2022-11-19T11:14:08.181Z,4.33
2022-11-19T11:15:08.116Z,4.31
2022-11-19T11:16:11.129Z,4.1
2022-11-19T11:17:08.202Z,3.81
2022-11-19T11:18:08.471Z,3.73
2022-11-19T11:19:08.253Z,3.55
2022-11-19T11:20:08.069Z,3.47
2022-11-19T11:21:08.151Z,3.33
2022-11-19T11:22:08.422Z,3.25
2022-11-19T11:23:08.025Z,3.21
2022-11-19T11:24:08.145Z,3.14
2022-11-19T11:25:08.195Z,3.17
2022-11-19T11:26:08.023Z,3.2
2022-11-19T11:27:11.155Z,3.27
2022-11-19T11:28:08.422Z,3.27
2022-11-19T11:29:08.225Z,3.3
2022-11-19T11:30:08.168Z,3.33
2022-11-19T11:31:08.120Z,3.33
2022-11-19T11:32:08.168Z,3.23
2022-11-19T11:33:08.960Z,3.14
2022-11-19T11:34:08.092Z,3.13
2022-11-19T11:35:12.158Z,3.1
2022-11-19T11:36:08.122Z,3.2
2022-11-19T11:37:08.025Z,3.21
2022-11-19T11:38:14.036Z,3.28
2022-11-19T11:39:08.178Z,3.4
2022-11-19T11:40:08.160Z,3.5
2022-11-19T11:42:02.023Z,3.61
2022-11-19T11:42:09.978Z,3.62
2022-11-19T11:43:08.389Z,3.52
2022-11-19T11:44:08.206Z,3.44
2022-11-19T11:45:08.102Z,3.48
2022-11-19T11:46:08.131Z,3.57
2022-11-19T11:47:08.191Z,3.58
2022-11-19T11:48:08.458Z,3.61
2022-11-19T11:49:12.476Z,3.61
2022-11-19T11:50:08.114Z,3.57
2022-11-19T11:51:08.088Z,3.56
2022-11-19T11:52:08.121Z,3.52
2022-11-19T11:53:08.384Z,3.53
2022-11-19T11:54:15.154Z,3.63
2022-11-19T11:55:08.099Z,3.61
2022-11-19T11:56:08.157Z,3.57
2022-11-19T11:57:08.225Z,3.52
2022-11-19T11:58:08.282Z,3.56
2022-11-19T11:59:08.233Z,3.72
2022-11-19T12:00:08.098Z,3.82
2022-11-19T12:01:12.762Z,3.93
2022-11-19T12:02:08.240Z,3.97
2022-11-19T12:03:08.416Z,3.9
2022-11-19T12:04:08.045Z,3.85
2022-11-19T12:05:11.017Z,3.86
2022-11-19T12:06:08.118Z,3.91
2022-11-19T12:07:08.219Z,3.92
2022-11-19T12:08:08.200Z,3.85
2022-11-19T12:09:08.441Z,3.82
2022-11-19T12:10:08.235Z,3.71
2022-11-19T12:11:08.040Z,3.63
2022-11-19T12:12:08.000Z,3.62
2022-11-19T12:13:08.238Z,3.66
2022-11-19T12:14:11.085Z,3.66
2022-11-19T12:15:08.009Z,3.6
2022-11-19T12:16:08.019Z,3.58
2022-11-19T12:17:08.034Z,3.59
2022-11-19T12:18:08.160Z,3.7
2022-11-19T12:19:08.427Z,3.85
2022-11-19T12:20:08.194Z,3.91
2022-11-19T12:21:11.985Z,3.94
2022-11-19T12:22:08.196Z,4.03
2022-11-19T12:23:08.090Z,4.06
2022-11-19T12:24:08.415Z,4.07
2022-11-19T12:25:08.170Z,4.07
2022-11-19T12:26:08.180Z,4.04
2022-11-19T12:27:08.170Z,4.1
2022-11-19T12:28:08.068Z,4.09
2022-11-19T12:29:08.450Z,4.05
2022-11-19T12:30:08.064Z,4.08
2022-11-19T12:31:08.169Z,4.04
2022-11-19T12:32:11.131Z,3.99
2022-11-19T12:33:08.219Z,3.96
2022-11-19T12:34:08.458Z,4
2022-11-19T12:35:08.206Z,4.13
2022-11-19T12:36:08.005Z,4.18
2022-11-19T12:37:08.025Z,4.26
2022-11-19T12:38:08.019Z,4.41
2022-11-19T12:39:08.042Z,4.49
2022-11-19T12:40:08.458Z,4.44
2022-11-19T12:41:08.196Z,4.43
2022-11-19T12:42:08.148Z,4.3
2022-11-19T12:43:11.165Z,4.2
2022-11-19T12:44:08.238Z,4.23
2022-11-19T12:45:08.078Z,4.11
2022-11-19T12:46:08.520Z,3.96
2022-11-19T12:47:08.193Z,3.9
2022-11-19T12:48:08.048Z,3.83
2022-11-19T12:49:08.599Z,3.79
2022-11-19T12:50:08.262Z,3.7
2022-11-19T12:51:08.170Z,3.72
2022-11-19T12:52:08.043Z,3.77
2022-11-19T12:53:08.123Z,3.77
2022-11-19T12:54:08.113Z,3.76
2022-11-19T12:55:08.207Z,3.78
2022-11-19T12:56:08.648Z,3.92
2022-11-19T12:57:08.112Z,3.91
2022-11-19T12:58:08.500Z,3.87
2022-11-19T12:59:11.098Z,3.89
2022-11-19T13:00:08.105Z,3.88
2022-11-19T13:01:08.184Z,3.81
2022-11-19T13:02:08.423Z,3.82
2022-11-19T13:03:08.061Z,3.84
2022-11-19T13:04:08.453Z,3.85
2022-11-19T13:05:08.182Z,3.91
2022-11-19T13:06:08.095Z,3.96
2022-11-19T13:07:08.540Z,4.04
2022-11-19T13:08:08.476Z,4.09
2022-11-19T13:09:08.219Z,4.12
2022-11-19T13:10:11.156Z,4.18
2022-11-19T13:11:08.156Z,4.18
2022-11-19T13:12:08.494Z,4.14
2022-11-19T13:13:08.245Z,4.05
2022-11-19T13:14:08.245Z,3.89
2022-11-19T13:15:08.109Z,3.86
2022-11-19T13:16:08.105Z,3.85
2022-11-19T13:17:08.396Z,3.82
2022-11-19T13:18:08.197Z,3.75
2022-11-19T13:19:08.477Z,3.75
2022-11-19T13:20:08.101Z,3.77
2022-11-19T13:21:10.980Z,3.79
2022-11-19T13:22:08.158Z,3.87
2022-11-19T13:23:08.498Z,3.93